sensor_id;sensor_type;location;lat;lon;timestamp;pressure;altitude;pressure_sealevel;temperature;humidity
58622;BME280;44389;51.578;5.456;2023-01-26T00:00:43;102465.16;;;-3.07;100.00
58622;BME280;44389;51.578;5.456;2023-01-26T00:03:08;102461.91;;;-3.06;100.00
58622;BME280;44389;51.578;5.456;2023-01-26T00:05:36;102463.66;;;-3.05;100.00
58622;BME280;44389;51.578;5.456;2023-01-26T00:08:01;102461.09;;;-2.98;100.00
58622;BME280;44389;51.578;5.456;2023-01-26T00:10:26;102457.91;;;-3.04;100.00
58622;BME280;44389;51.578;5.456;2023-01-26T00:12:52;102449.44;;;-3.04;100.00
58622;BME280;44389;51.578;5.456;2023-01-26T00:15:17;102448.91;;;-3.02;100.00
58622;BME280;44389;51.578;5.456;2023-01-26T00:17:43;102448.34;;;-2.99;100.00
58622;BME280;44389;51.578;5.456;2023-01-26T00:20:09;102442.38;;;-3.00;100.00
58622;BME280;44389;51.578;5.456;2023-01-26T00:22:34;102449.06;;;-3.00;100.00
58622;BME280;44389;51.578;5.456;2023-01-26T00:25:00;102439.13;;;-2.99;100.00
58622;BME280;44389;51.578;5.456;2023-01-26T00:27:25;102446.28;;;-2.94;100.00
58622;BME280;44389;51.578;5.456;2023-01-26T00:29:50;102436.41;;;-2.93;100.00
58622;BME280;44389;51.578;5.456;2023-01-26T00:32:15;102434.75;;;-2.92;100.00
58622;BME280;44389;51.578;5.456;2023-01-26T00:34:41;102438.13;;;-2.85;100.00
58622;BME280;44389;51.578;5.456;2023-01-26T00:37:06;102430.78;;;-2.90;100.00
58622;BME280;44389;51.578;5.456;2023-01-26T00:39:31;102421.41;;;-2.91;100.00
58622;BME280;44389;51.578;5.456;2023-01-26T00:41:57;102423.94;;;-2.91;100.00
58622;BME280;44389;51.578;5.456;2023-01-26T00:44:34;102420.34;;;-2.93;100.00
58622;BME280;44389;51.578;5.456;2023-01-26T00:46:59;102422.09;;;-2.85;100.00
58622;BME280;44389;51.578;5.456;2023-01-26T00:49:25;102421.41;;;-2.91;100.00
58622;BME280;44389;51.578;5.456;2023-01-26T00:51:50;102408.81;;;-2.91;100.00
58622;BME280;44389;51.578;5.456;2023-01-26T00:54:15;102403.75;;;-2.91;100.00
58622;BME280;44389;51.578;5.456;2023-01-26T00:56:40;102406.59;;;-2.88;100.00
58622;BME280;44389;51.578;5.456;2023-01-26T00:59:06;102392.59;;;-2.93;100.00
58622;BME280;44389;51.578;5.456;2023-01-26T01:01:31;102397.63;;;-2.93;100.00
58622;BME280;44389;51.578;5.456;2023-01-26T01:03:58;102401.81;;;-2.94;100.00
58622;BME280;44389;51.578;5.456;2023-01-26T01:06:23;102390.78;;;-2.94;100.00
58622;BME280;44389;51.578;5.456;2023-01-26T01:08:48;102396.41;;;-2.97;100.00
58622;BME280;44389;51.578;5.456;2023-01-26T01:11:13;102393.00;;;-2.98;100.00
58622;BME280;44389;51.578;5.456;2023-01-26T01:13:39;102394.06;;;-2.95;100.00
58622;BME280;44389;51.578;5.456;2023-01-26T01:16:07;102391.56;;;-2.95;100.00
58622;BME280;44389;51.578;5.456;2023-01-26T01:18:33;102400.00;;;-2.95;100.00
58622;BME280;44389;51.578;5.456;2023-01-26T01:20:58;102397.63;;;-2.93;100.00
58622;BME280;44389;51.578;5.456;2023-01-26T01:23:26;102403.59;;;-2.93;100.00
58622;BME280;44389;51.578;5.456;2023-01-26T01:25:59;102398.63;;;-2.84;100.00
58622;BME280;44389;51.578;5.456;2023-01-26T01:28:25;102391.47;;;-2.88;100.00
58622;BME280;44389;51.578;5.456;2023-01-26T01:30:50;102384.06;;;-2.87;100.00
58622;BME280;44389;51.578;5.456;2023-01-26T01:33:16;102380.66;;;-2.87;100.00
58622;BME280;44389;51.578;5.456;2023-01-26T01:35:41;102379.94;;;-2.86;100.00
58622;BME280;44389;51.578;5.456;2023-01-26T01:38:06;102385.97;;;-2.77;100.00
58622;BME280;44389;51.578;5.456;2023-01-26T01:40:31;102388.22;;;-2.87;100.00
58622;BME280;44389;51.578;5.456;2023-01-26T01:42:57;102389.66;;;-2.89;100.00
58622;BME280;44389;51.578;5.456;2023-01-26T01:47:55;102386.41;;;-2.88;100.00
58622;BME280;44389;51.578;5.456;2023-01-26T01:50:23;102391.06;;;-2.84;100.00
58622;BME280;44389;51.578;5.456;2023-01-26T01:52:49;102399.66;;;-2.75;100.00
58622;BME280;44389;51.578;5.456;2023-01-26T01:55:15;102401.81;;;-2.78;100.00
58622;BME280;44389;51.578;5.456;2023-01-26T01:58:01;102396.94;;;-2.76;100.00
58622;BME280;44389;51.578;5.456;2023-01-26T02:00:27;102397.69;;;-2.77;100.00
58622;BME280;44389;51.578;5.456;2023-01-26T02:02:59;102398.41;;;-2.78;100.00
58622;BME280;44389;51.578;5.456;2023-01-26T02:08:17;102386.06;;;-2.68;100.00
58622;BME280;44389;51.578;5.456;2023-01-26T02:10:45;102388.66;;;-2.75;100.00
58622;BME280;44389;51.578;5.456;2023-01-26T02:13:11;102376.53;;;-2.71;100.00
58622;BME280;44389;51.578;5.456;2023-01-26T02:15:37;102367.09;;;-2.65;100.00
58622;BME280;44389;51.578;5.456;2023-01-26T02:18:03;102365.72;;;-2.70;100.00
58622;BME280;44389;51.578;5.456;2023-01-26T02:28:25;102369.69;;;-2.72;100.00
58622;BME280;44389;51.578;5.456;2023-01-26T02:30:52;102362.28;;;-2.70;100.00
58622;BME280;44389;51.578;5.456;2023-01-26T02:33:24;102368.81;;;-2.72;100.00
58622;BME280;44389;51.578;5.456;2023-01-26T02:35:50;102358.72;;;-2.72;100.00
58622;BME280;44389;51.578;5.456;2023-01-26T02:38:17;102364.97;;;-2.69;100.00
58622;BME280;44389;51.578;5.456;2023-01-26T02:40:48;102346.00;;;-2.65;100.00
58622;BME280;44389;51.578;5.456;2023-01-26T02:43:15;102358.47;;;-2.67;100.00
58622;BME280;44389;51.578;5.456;2023-01-26T02:45:41;102356.66;;;-2.68;100.00
58622;BME280;44389;51.578;5.456;2023-01-26T02:48:07;102352.84;;;-2.64;100.00
58622;BME280;44389;51.578;5.456;2023-01-26T02:50:33;102344.19;;;-2.66;100.00
58622;BME280;44389;51.578;5.456;2023-01-26T02:52:59;102348.69;;;-2.63;100.00
58622;BME280;44389;51.578;5.456;2023-01-26T02:55:24;102351.13;;;-2.56;100.00
58622;BME280;44389;51.578;5.456;2023-01-26T02:58:01;102344.13;;;-2.59;100.00
58622;BME280;44389;51.578;5.456;2023-01-26T03:00:35;102346.41;;;-2.53;100.00
58622;BME280;44389;51.578;5.456;2023-01-26T03:03:38;102351.56;;;-2.60;100.00
58622;BME280;44389;51.578;5.456;2023-01-26T03:06:10;102347.22;;;-2.61;100.00
58622;BME280;44389;51.578;5.456;2023-01-26T03:08:37;102349.75;;;-2.61;100.00
58622;BME280;44389;51.578;5.456;2023-01-26T03:11:04;102345.78;;;-2.59;100.00
58622;BME280;44389;51.578;5.456;2023-01-26T03:13:29;102348.47;;;-2.58;100.00
58622;BME280;44389;51.578;5.456;2023-01-26T03:15:55;102348.31;;;-2.59;100.00
58622;BME280;44389;51.578;5.456;2023-01-26T03:18:21;102352.59;;;-2.58;100.00
58622;BME280;44389;51.578;5.456;2023-01-26T03:21:10;102356.84;;;-2.50;100.00
58622;BME280;44389;51.578;5.456;2023-01-26T03:23:55;102350.72;;;-2.52;100.00
58622;BME280;44389;51.578;5.456;2023-01-26T03:26:39;102350.31;;;-2.48;100.00
58622;BME280;44389;51.578;5.456;2023-01-26T03:29:23;102343.66;;;-2.47;100.00
58622;BME280;44389;51.578;5.456;2023-01-26T03:31:51;102350.09;;;-2.42;100.00
58622;BME280;44389;51.578;5.456;2023-01-26T03:34:16;102351.31;;;-2.39;100.00
58622;BME280;44389;51.578;5.456;2023-01-26T03:36:41;102343.91;;;-2.37;100.00
58622;BME280;44389;51.578;5.456;2023-01-26T03:39:07;102346.56;;;-2.36;100.00
58622;BME280;44389;51.578;5.456;2023-01-26T03:41:33;102347.53;;;-2.26;100.00
58622;BME280;44389;51.578;5.456;2023-01-26T03:44:17;102337.13;;;-2.29;100.00
58622;BME280;44389;51.578;5.456;2023-01-26T03:47:00;102338.00;;;-2.29;100.00
58622;BME280;44389;51.578;5.456;2023-01-26T03:49:44;102348.19;;;-2.20;100.00
58622;BME280;44389;51.578;5.456;2023-01-26T03:52:31;102346.25;;;-2.23;100.00
58622;BME280;44389;51.578;5.456;2023-01-26T03:55:14;102335.97;;;-2.24;100.00
58622;BME280;44389;51.578;5.456;2023-01-26T03:57:58;102339.53;;;-2.22;100.00
58622;BME280;44389;51.578;5.456;2023-01-26T04:00:23;102331.97;;;-2.22;100.00
58622;BME280;44389;51.578;5.456;2023-01-26T04:02:49;102329.78;;;-2.19;100.00
58622;BME280;44389;51.578;5.456;2023-01-26T04:05:33;102333.03;;;-2.20;100.00
58622;BME280;44389;51.578;5.456;2023-01-26T04:08:16;102331.25;;;-2.21;100.00
58622;BME280;44389;51.578;5.456;2023-01-26T04:10:47;102331.59;;;-2.18;100.00
58622;BME280;44389;51.578;5.456;2023-01-26T04:13:12;102337.00;;;-2.06;100.00
58622;BME280;44389;51.578;5.456;2023-01-26T04:15:56;102328.63;;;-2.14;100.00
58622;BME280;44389;51.578;5.456;2023-01-26T04:18:40;102328.94;;;-2.11;100.00
58622;BME280;44389;51.578;5.456;2023-01-26T04:21:24;102330.81;;;-2.01;100.00
58622;BME280;44389;51.578;5.456;2023-01-26T04:23:57;102335.78;;;-2.10;100.00
58622;BME280;44389;51.578;5.456;2023-01-26T04:26:24;102334.00;;;-2.11;100.00
58622;BME280;44389;51.578;5.456;2023-01-26T04:28:50;102329.28;;;-2.08;100.00
58622;BME280;44389;51.578;5.456;2023-01-26T04:31:15;102328.75;;;-1.96;100.00
58622;BME280;44389;51.578;5.456;2023-01-26T04:33:41;102334.22;;;-2.01;100.00
58622;BME280;44389;51.578;5.456;2023-01-26T04:36:08;102339.28;;;-2.01;100.00
58622;BME280;44389;51.578;5.456;2023-01-26T04:38:34;102331.38;;;-2.04;100.00
58622;BME280;44389;51.578;5.456;2023-01-26T04:40:59;102339.44;;;-1.99;100.00
58622;BME280;44389;51.578;5.456;2023-01-26T04:43:25;102329.91;;;-2.02;100.00
58622;BME280;44389;51.578;5.456;2023-01-26T04:46:02;102331.84;;;-1.99;100.00
58622;BME280;44389;51.578;5.456;2023-01-26T04:48:28;102331.28;;;-1.96;100.00
58622;BME280;44389;51.578;5.456;2023-01-26T04:50:59;102334.94;;;-2.02;100.00
58622;BME280;44389;51.578;5.456;2023-01-26T04:53:25;102333.78;;;-1.96;100.00
58622;BME280;44389;51.578;5.456;2023-01-26T04:55:51;102338.47;;;-1.92;100.00
58622;BME280;44389;51.578;5.456;2023-01-26T04:58:16;102331.59;;;-1.93;100.00
58622;BME280;44389;51.578;5.456;2023-01-26T05:00:42;102327.78;;;-1.90;100.00
58622;BME280;44389;51.578;5.456;2023-01-26T05:03:07;102332.66;;;-1.91;100.00
58622;BME280;44389;51.578;5.456;2023-01-26T05:05:37;102329.16;;;-1.85;100.00
58622;BME280;44389;51.578;5.456;2023-01-26T05:08:04;102325.41;;;-1.88;100.00
58622;BME280;44389;51.578;5.456;2023-01-26T05:10:29;102323.81;;;-1.79;100.00
58622;BME280;44389;51.578;5.456;2023-01-26T05:12:54;102321.38;;;-1.86;100.00
58622;BME280;44389;51.578;5.456;2023-01-26T05:15:20;102328.88;;;-1.79;100.00
58622;BME280;44389;51.578;5.456;2023-01-26T05:17:45;102321.72;;;-1.83;100.00
58622;BME280;44389;51.578;5.456;2023-01-26T05:20:11;102321.88;;;-1.82;100.00
58622;BME280;44389;51.578;5.456;2023-01-26T05:22:36;102324.69;;;-1.78;100.00
58622;BME280;44389;51.578;5.456;2023-01-26T05:25:02;102326.56;;;-1.69;100.00
58622;BME280;44389;51.578;5.456;2023-01-26T05:27:27;102325.91;;;-1.75;100.00
58622;BME280;44389;51.578;5.456;2023-01-26T05:29:52;102323.09;;;-1.78;100.00
58622;BME280;44389;51.578;5.456;2023-01-26T05:32:19;102336.44;;;-1.79;100.00
58622;BME280;44389;51.578;5.456;2023-01-26T05:34:46;102329.03;;;-1.77;100.00
58622;BME280;44389;51.578;5.456;2023-01-26T05:37:11;102331.28;;;-1.72;100.00
58622;BME280;44389;51.578;5.456;2023-01-26T05:39:37;102335.81;;;-1.60;100.00
58622;BME280;44389;51.578;5.456;2023-01-26T05:42:02;102328.00;;;-1.71;100.00
58622;BME280;44389;51.578;5.456;2023-01-26T05:44:27;102325.34;;;-1.72;100.00
58622;BME280;44389;51.578;5.456;2023-01-26T05:46:53;102327.72;;;-1.74;100.00
58622;BME280;44389;51.578;5.456;2023-01-26T05:49:19;102331.59;;;-1.69;100.00
58622;BME280;44389;51.578;5.456;2023-01-26T05:51:44;102326.56;;;-1.69;100.00
58622;BME280;44389;51.578;5.456;2023-01-26T05:54:10;102329.38;;;-1.66;100.00
58622;BME280;44389;51.578;5.456;2023-01-26T05:56:35;102325.50;;;-1.71;100.00
58622;BME280;44389;51.578;5.456;2023-01-26T05:59:00;102325.63;;;-1.69;100.00
58622;BME280;44389;51.578;5.456;2023-01-26T06:01:26;102331.59;;;-1.69;100.00
58622;BME280;44389;51.578;5.456;2023-01-26T06:03:51;102327.28;;;-1.70;100.00
58622;BME280;44389;51.578;5.456;2023-01-26T06:06:18;102334.88;;;-1.70;100.00
58622;BME280;44389;51.578;5.456;2023-01-26T06:08:43;102338.63;;;-1.66;100.00
58622;BME280;44389;51.578;5.456;2023-01-26T06:11:08;102342.75;;;-1.67;100.00
58622;BME280;44389;51.578;5.456;2023-01-26T06:13:33;102344.25;;;-1.69;100.00
58622;BME280;44389;51.578;5.456;2023-01-26T06:15:59;102343.50;;;-1.68;100.00
58622;BME280;44389;51.578;5.456;2023-01-26T06:18:25;102344.56;;;-1.66;100.00
58622;BME280;44389;51.578;5.456;2023-01-26T06:20:51;102346.19;;;-1.66;100.00
58622;BME280;44389;51.578;5.456;2023-01-26T06:23:16;102341.38;;;-1.72;100.00
58622;BME280;44389;51.578;5.456;2023-01-26T06:25:41;102343.19;;;-1.71;100.00
58622;BME280;44389;51.578;5.456;2023-01-26T06:28:07;102335.44;;;-1.72;100.00
58622;BME280;44389;51.578;5.456;2023-01-26T06:30:32;102341.38;;;-1.72;100.00
58622;BME280;44389;51.578;5.456;2023-01-26T06:32:59;102343.91;;;-1.72;100.00
58622;BME280;44389;51.578;5.456;2023-01-26T06:35:24;102346.78;;;-1.69;100.00
58622;BME280;44389;51.578;5.456;2023-01-26T06:37:51;102346.44;;;-1.72;100.00
58622;BME280;44389;51.578;5.456;2023-01-26T06:40:17;102349.16;;;-1.70;100.00
58622;BME280;44389;51.578;5.456;2023-01-26T06:42:49;102355.81;;;-1.71;100.00
58622;BME280;44389;51.578;5.456;2023-01-26T06:45:15;102346.44;;;-1.72;100.00
58622;BME280;44389;51.578;5.456;2023-01-26T06:47:48;102358.34;;;-1.71;100.00
58622;BME280;44389;51.578;5.456;2023-01-26T06:50:15;102358.34;;;-1.71;100.00
58622;BME280;44389;51.578;5.456;2023-01-26T06:52:45;102360.16;;;-1.70;100.00
58622;BME280;44389;51.578;5.456;2023-01-26T06:55:28;102360.44;;;-1.67;100.00
58622;BME280;44389;51.578;5.456;2023-01-26T06:57:56;102357.03;;;-1.67;100.00
58622;BME280;44389;51.578;5.456;2023-01-26T07:00:21;102358.25;;;-1.63;100.00
58622;BME280;44389;51.578;5.456;2023-01-26T07:02:47;102355.38;;;-1.67;100.00
58622;BME280;44389;51.578;5.456;2023-01-26T07:05:12;102360.66;;;-1.56;100.00
58622;BME280;44389;51.578;5.456;2023-01-26T07:07:37;102358.03;;;-1.49;100.00
58622;BME280;44389;51.578;5.456;2023-01-26T07:10:03;102361.09;;;-1.60;100.00
58622;BME280;44389;51.578;5.456;2023-01-26T07:12:40;102365.72;;;-1.56;100.00
58622;BME280;44389;51.578;5.456;2023-01-26T07:15:06;102368.25;;;-1.56;100.00
58622;BME280;44389;51.578;5.456;2023-01-26T07:17:32;102371.53;;;-1.57;100.00
58622;BME280;44389;51.578;5.456;2023-01-26T07:19:57;102369.88;;;-1.57;100.00
58622;BME280;44389;51.578;5.456;2023-01-26T07:22:22;102366.47;;;-1.57;100.00
58622;BME280;44389;51.578;5.456;2023-01-26T07:24:48;102371.16;;;-1.44;100.00
58622;BME280;44389;51.578;5.456;2023-01-26T07:27:13;102371.09;;;-1.53;100.00
58622;BME280;44389;51.578;5.456;2023-01-26T07:29:38;102373.34;;;-1.47;100.00
58622;BME280;44389;51.578;5.456;2023-01-26T07:32:03;102371.31;;;-1.43;100.00
58622;BME280;44389;51.578;5.456;2023-01-26T07:34:29;102365.63;;;-1.49;100.00
58622;BME280;44389;51.578;5.456;2023-01-26T07:36:54;102369.22;;;-1.47;100.00
58622;BME280;44389;51.578;5.456;2023-01-26T07:39:19;102364.75;;;-1.50;100.00
58622;BME280;44389;51.578;5.456;2023-01-26T07:41:44;102370.59;;;-1.42;100.00
58622;BME280;44389;51.578;5.456;2023-01-26T07:44:10;102362.66;;;-1.45;100.00
58622;BME280;44389;51.578;5.456;2023-01-26T07:46:35;102374.28;;;-1.47;100.00
58622;BME280;44389;51.578;5.456;2023-01-26T07:49:00;102377.09;;;-1.44;100.00
58622;BME280;44389;51.578;5.456;2023-01-26T07:51:26;102378.47;;;-1.39;100.00
58622;BME280;44389;51.578;5.456;2023-01-26T07:53:51;102383.22;;;-1.42;100.00
58622;BME280;44389;51.578;5.456;2023-01-26T07:56:17;102382.66;;;-1.39;100.00
58622;BME280;44389;51.578;5.456;2023-01-26T07:58:47;102388.06;;;-1.27;100.00
58622;BME280;44389;51.578;5.456;2023-01-26T08:01:13;102381.00;;;-1.39;100.00
58622;BME280;44389;51.578;5.456;2023-01-26T08:03:39;102381.72;;;-1.40;100.00
58622;BME280;44389;51.578;5.456;2023-01-26T08:06:06;102386.53;;;-1.34;100.00
58622;BME280;44389;51.578;5.456;2023-01-26T08:08:32;102394.38;;;-1.40;100.00
58622;BME280;44389;51.578;5.456;2023-01-26T08:10:58;102402.13;;;-1.38;100.00
58622;BME280;44389;51.578;5.456;2023-01-26T08:13:28;102399.13;;;-1.43;100.00
58622;BME280;44389;51.578;5.456;2023-01-26T08:15:59;102394.81;;;-1.44;100.00
58622;BME280;44389;51.578;5.456;2023-01-26T08:18:24;102398.06;;;-1.45;100.00
58622;BME280;44389;51.578;5.456;2023-01-26T08:20:51;102401.66;;;-1.43;100.00
58622;BME280;44389;51.578;5.456;2023-01-26T08:23:17;102400.75;;;-1.43;100.00
58622;BME280;44389;51.578;5.456;2023-01-26T08:25:43;102397.34;;;-1.44;100.00
58622;BME280;44389;51.578;5.456;2023-01-26T08:28:08;102399.78;;;-1.37;100.00
58622;BME280;44389;51.578;5.456;2023-01-26T08:30:34;102388.59;;;-1.39;100.00
58622;BME280;44389;51.578;5.456;2023-01-26T08:33:01;102396.19;;;-1.39;100.00
58622;BME280;44389;51.578;5.456;2023-01-26T08:35:26;102400.66;;;-1.36;100.00
58622;BME280;44389;51.578;5.456;2023-01-26T08:37:51;102403.81;;;-1.30;100.00
58622;BME280;44389;51.578;5.456;2023-01-26T08:40:17;102407.97;;;-1.30;100.00
58622;BME280;44389;51.578;5.456;2023-01-26T08:42:42;102417.78;;;-1.34;100.00
58622;BME280;44389;51.578;5.456;2023-01-26T08:45:07;102416.63;;;-1.28;100.00
58622;BME280;44389;51.578;5.456;2023-01-26T08:47:33;102415.09;;;-1.35;100.00
58622;BME280;44389;51.578;5.456;2023-01-26T08:49:59;102415.41;;;-1.32;100.00
58622;BME280;44389;51.578;5.456;2023-01-26T08:52:24;102411.25;;;-1.31;100.00
58622;BME280;44389;51.578;5.456;2023-01-26T08:54:49;102420.59;;;-1.30;100.00
58622;BME280;44389;51.578;5.456;2023-01-26T08:57:15;102411.97;;;-1.33;100.00
58622;BME280;44389;51.578;5.456;2023-01-26T08:59:40;102409.47;;;-1.33;100.00
58622;BME280;44389;51.578;5.456;2023-01-26T09:02:08;102411.97;;;-1.33;100.00
58622;BME280;44389;51.578;5.456;2023-01-26T09:04:34;102412.13;;;-1.31;100.00
58622;BME280;44389;51.578;5.456;2023-01-26T09:06:59;102406.50;;;-1.28;100.00
58622;BME280;44389;51.578;5.456;2023-01-26T09:09:25;102409.75;;;-1.29;100.00
58622;BME280;44389;51.578;5.456;2023-01-26T09:11:54;102413.34;;;-1.27;100.00
58622;BME280;44389;51.578;5.456;2023-01-26T09:14:19;102411.03;;;-1.17;100.00
58622;BME280;44389;51.578;5.456;2023-01-26T09:16:44;102417.50;;;-1.28;100.00
58622;BME280;44389;51.578;5.456;2023-01-26T09:19:10;102415.16;;;-1.26;100.00
58622;BME280;44389;51.578;5.456;2023-01-26T09:21:35;102419.44;;;-1.25;100.00
58622;BME280;44389;51.578;5.456;2023-01-26T09:24:00;102410.41;;;-1.23;100.00
58622;BME280;44389;51.578;5.456;2023-01-26T09:26:28;102424.34;;;-1.27;100.00
58622;BME280;44389;51.578;5.456;2023-01-26T09:28:53;102413.66;;;-1.24;100.00
58622;BME280;44389;51.578;5.456;2023-01-26T09:31:18;102420.34;;;-1.25;100.00
58622;BME280;44389;51.578;5.456;2023-01-26T09:33:44;102416.91;;;-1.25;100.00
58622;BME280;44389;51.578;5.456;2023-01-26T09:36:10;102422.88;;;-1.25;100.00
58622;BME280;44389;51.578;5.456;2023-01-26T09:38:36;102424.34;;;-1.27;100.00
58622;BME280;44389;51.578;5.456;2023-01-26T09:43:33;102430.63;;;-1.23;100.00
58622;BME280;44389;51.578;5.456;2023-01-26T09:46:24;102429.16;;;-1.21;100.00
58622;BME280;44389;51.578;5.456;2023-01-26T09:49:17;102419.34;;;-1.18;100.00
58622;BME280;44389;51.578;5.456;2023-01-26T09:54:31;102428.00;;;-1.16;100.00
58622;BME280;44389;51.578;5.456;2023-01-26T09:57:01;102428.44;;;-1.11;100.00
58622;BME280;44389;51.578;5.456;2023-01-26T09:59:33;102425.91;;;-1.11;100.00
58622;BME280;44389;51.578;5.456;2023-01-26T10:02:21;102431.34;;;-1.00;100.00
58622;BME280;44389;51.578;5.456;2023-01-26T10:04:48;102430.16;;;-0.94;100.00
58622;BME280;44389;51.578;5.456;2023-01-26T10:07:15;102429.75;;;-0.90;100.00
58622;BME280;44389;51.578;5.456;2023-01-26T10:09:46;102426.91;;;-0.93;100.00
58622;BME280;44389;51.578;5.456;2023-01-26T10:12:21;102425.72;;;-0.88;100.00
58622;BME280;44389;51.578;5.456;2023-01-26T10:14:51;102422.63;;;-0.86;100.00
58622;BME280;44389;51.578;5.456;2023-01-26T10:17:33;102421.19;;;-0.75;100.00
58622;BME280;44389;51.578;5.456;2023-01-26T10:20:05;102422.41;;;-0.62;100.00
58622;BME280;44389;51.578;5.456;2023-01-26T10:22:42;102414.09;;;-0.53;100.00
58622;BME280;44389;51.578;5.456;2023-01-26T10:25:14;102418.41;;;-0.43;100.00
58622;BME280;44389;51.578;5.456;2023-01-26T10:27:39;102420.53;;;-0.30;100.00
58622;BME280;44389;51.578;5.456;2023-01-26T10:30:11;102417.56;;;-0.17;100.00
58622;BME280;44389;51.578;5.456;2023-01-26T10:32:37;102417.16;;;-0.13;100.00
58622;BME280;44389;51.578;5.456;2023-01-26T10:35:04;102420.72;;;-0.02;100.00
58622;BME280;44389;51.578;5.456;2023-01-26T10:37:29;102419.38;;;0.02;100.00
58622;BME280;44389;51.578;5.456;2023-01-26T10:40:04;102436.09;;;0.17;100.00
58622;BME280;44389;51.578;5.456;2023-01-26T10:42:33;102435.19;;;0.25;100.00
58622;BME280;44389;51.578;5.456;2023-01-26T10:45:01;102426.50;;;0.32;100.00
58622;BME280;44389;51.578;5.456;2023-01-26T10:47:27;102424.72;;;0.40;100.00
58622;BME280;44389;51.578;5.456;2023-01-26T10:50:22;102425.75;;;0.51;100.00
58622;BME280;44389;51.578;5.456;2023-01-26T10:53:00;102430.38;;;0.63;100.00
58622;BME280;44389;51.578;5.456;2023-01-26T10:55:26;102431.50;;;0.76;100.00
58622;BME280;44389;51.578;5.456;2023-01-26T10:57:52;102428.19;;;0.94;100.00
58622;BME280;44389;51.578;5.456;2023-01-26T11:02:54;102423.13;;;1.22;100.00
58622;BME280;44389;51.578;5.456;2023-01-26T11:05:26;102421.03;;;1.27;100.00
58622;BME280;44389;51.578;5.456;2023-01-26T11:07:55;102423.94;;;1.40;100.00
58622;BME280;44389;51.578;5.456;2023-01-26T11:10:33;102430.78;;;1.50;100.00
58622;BME280;44389;51.578;5.456;2023-01-26T11:13:16;102417.81;;;1.66;100.00
58622;BME280;44389;51.578;5.456;2023-01-26T11:15:48;102411.44;;;1.80;100.00
58622;BME280;44389;51.578;5.456;2023-01-26T11:18:27;102418.66;;;1.94;100.00
58622;BME280;44389;51.578;5.456;2023-01-26T11:21:16;102423.88;;;1.96;100.00
58622;BME280;44389;51.578;5.456;2023-01-26T11:23:51;102425.72;;;2.07;100.00
58622;BME280;44389;51.578;5.456;2023-01-26T11:38:26;102424.13;;;3.06;100.00
58622;BME280;44389;51.578;5.456;2023-01-26T11:43:39;102413.06;;;3.26;100.00
58622;BME280;44389;51.578;5.456;2023-01-26T11:51:50;102404.03;;;3.82;100.00
58622;BME280;44389;51.578;5.456;2023-01-26T11:57:10;102396.38;;;4.35;100.00
58622;BME280;44389;51.578;5.456;2023-01-26T11:59:43;102398.97;;;4.57;100.00
58622;BME280;44389;51.578;5.456;2023-01-26T12:02:29;102394.47;;;4.65;100.00
58622;BME280;44389;51.578;5.456;2023-01-26T12:04:57;102392.53;;;4.72;100.00
58622;BME280;44389;51.578;5.456;2023-01-26T12:07:39;102391.34;;;4.79;100.00
58622;BME280;44389;51.578;5.456;2023-01-26T12:10:16;102383.50;;;4.88;100.00
58622;BME280;44389;51.578;5.456;2023-01-26T12:12:50;102390.28;;;4.87;100.00
58622;BME280;44389;51.578;5.456;2023-01-26T12:15:23;102380.50;;;4.82;100.00
58622;BME280;44389;51.578;5.456;2023-01-26T12:18:05;102375.78;;;4.76;100.00
58622;BME280;44389;51.578;5.456;2023-01-26T12:25:35;102368.00;;;4.97;100.00
58622;BME280;44389;51.578;5.456;2023-01-26T12:33:46;102356.66;;;5.27;100.00
58622;BME280;44389;51.578;5.456;2023-01-26T12:36:15;102359.81;;;5.35;100.00
58622;BME280;44389;51.578;5.456;2023-01-26T12:44:40;102343.81;;;5.37;100.00
58622;BME280;44389;51.578;5.456;2023-01-26T12:47:13;102342.50;;;5.54;100.00
58622;BME280;44389;51.578;5.456;2023-01-26T12:50:04;102333.81;;;5.52;100.00
58622;BME280;44389;51.578;5.456;2023-01-26T12:52:38;102339.59;;;5.50;100.00
58622;BME280;44389;51.578;5.456;2023-01-26T12:55:14;102332.72;;;5.72;100.00
58622;BME280;44389;51.578;5.456;2023-01-26T12:57:49;102333.38;;;5.93;100.00
58622;BME280;44389;51.578;5.456;2023-01-26T13:00:36;102334.97;;;5.91;100.00
58622;BME280;44389;51.578;5.456;2023-01-26T13:03:19;102334.63;;;5.75;100.00
58622;BME280;44389;51.578;5.456;2023-01-26T13:10:57;102333.81;;;5.52;100.00
58622;BME280;44389;51.578;5.456;2023-01-26T13:13:31;102333.16;;;5.55;100.00
58622;BME280;44389;51.578;5.456;2023-01-26T13:18:58;102331.81;;;5.72;100.00
58622;BME280;44389;51.578;5.456;2023-01-26T13:31:53;102321.84;;;5.75;100.00
58622;BME280;44389;51.578;5.456;2023-01-26T13:34:42;102323.59;;;5.64;100.00
58622;BME280;44389;51.578;5.456;2023-01-26T13:37:18;102324.59;;;5.54;100.00
58622;BME280;44389;51.578;5.456;2023-01-26T13:39:51;102325.69;;;5.46;100.00
58622;BME280;44389;51.578;5.456;2023-01-26T13:42:22;102321.88;;;5.41;100.00
58622;BME280;44389;51.578;5.456;2023-01-26T13:44:53;102327.34;;;5.34;100.00
58622;BME280;44389;51.578;5.456;2023-01-26T13:47:26;102324.00;;;5.35;100.00
58622;BME280;44389;51.578;5.456;2023-01-26T13:49:54;102329.16;;;5.58;100.00
58622;BME280;44389;51.578;5.456;2023-01-26T13:52:24;102323.38;;;5.85;100.00
58622;BME280;44389;51.578;5.456;2023-01-26T13:54:54;102321.72;;;5.97;100.00
58622;BME280;44389;51.578;5.456;2023-01-26T13:57:29;102321.84;;;5.99;100.00
58622;BME280;44389;51.578;5.456;2023-01-26T13:59:56;102317.84;;;5.90;100.00
58622;BME280;44389;51.578;5.456;2023-01-26T14:02:27;102315.59;;;5.83;100.00
58622;BME280;44389;51.578;5.456;2023-01-26T14:04:55;102318.50;;;5.76;100.00
58622;BME280;44389;51.578;5.456;2023-01-26T14:07:37;102321.38;;;5.69;100.00
58622;BME280;44389;51.578;5.456;2023-01-26T14:10:03;102321.16;;;5.66;100.00
58622;BME280;44389;51.578;5.456;2023-01-26T14:12:32;102318.47;;;5.64;100.00